This is the latest recevied weather packets stored in our database for station/object DB0SWS-6. If no packets are shown the sender has not sent any weather packets the latest 10 day(s).
| Time | Temp. | Humidity | Pressure | Rain* | Wind** | Luminosity | Snow |
|---|---|---|---|---|---|---|---|
| 1777921411 | 13.89° C | 81% | 959 hPa | 0 mm | - | - | - |
| 1777919611 | 15° C | 75% | 959.3 hPa | 0 mm | - | - | - |
| 1777917811 | 15.56° C | 72% | 959.5 hPa | 0 mm | - | - | - |
| 1777916011 | 16.11° C | 68% | 959.5 hPa | 0 mm | - | - | - |
| 1777914210 | 16.67° C | 67% | 959.4 hPa | 0 mm | - | - | - |
| 1777912411 | 16.67° C | 65% | 959.6 hPa | 0 mm | - | - | - |
| 1777910611 | 16.67° C | 61% | 959.4 hPa | 0 mm | - | - | - |
| 1777908810 | 16.67° C | 60% | 959.4 hPa | 0 mm | - | - | - |
| 1777907010 | 17.78° C | 61% | 959.3 hPa | 0 mm | - | - | - |
| 1777905211 | 18.33° C | 57% | 959 hPa | 0 mm | - | - | - |
| 1777903411 | 18.89° C | 55% | 959.1 hPa | 0 mm | - | - | - |
| 1777901610 | 18.33° C | 54% | 959.2 hPa | 0 mm | - | - | - |
| 1777899810 | 17.78° C | 56% | 959.5 hPa | 0 mm | - | - | - |
| 1777898010 | 18.33° C | 54% | 959.7 hPa | 0 mm | - | - | - |
| 1777896211 | 18.89° C | 50% | 959.7 hPa | 0 mm | - | - | - |
| 1777894409 | 18.89° C | 51% | 960.1 hPa | 0 mm | - | - | - |
| 1777892609 | 18.33° C | 53% | 960.5 hPa | 0 mm | - | - | - |
| 1777890810 | 17.78° C | 52% | 960.3 hPa | 0 mm | - | - | - |
| 1777889010 | 18.33° C | 47% | 960.4 hPa | 0 mm | - | - | - |
| 1777887210 | 17.22° C | 57% | 960.6 hPa | 0 mm | - | - | - |
| 1777885410 | 16.67° C | 60% | 960.6 hPa | 0 mm | - | - | - |
| 1777883611 | 16.67° C | 63% | 960.8 hPa | 0 mm | - | - | - |
| 1777881812 | 15.56° C | 75% | 960.7 hPa | 0 mm | - | - | - |
| 1777880011 | 15° C | 76% | 960.5 hPa | 0 mm | - | - | - |
| 1777878210 | 13.89° C | 79% | 960.6 hPa | 0 mm | - | - | - |
* Rain latest hour (hover to see other rain measurements)
** Current wind speed in m/s (hover to see current wind gust speed)